Time;durP1;ratioP1;P1;durP2;ratioP2;P2;SDS_P1;SDS_P2;PMS_P1;PMS_P2;Temp;Humidity;BMP_temperature;BMP_pressure;BME280_temperature;BME280_humidity;BME280_pressure;Samples;Min_cycle;Max_cycle;Signal;HPM_P1;HPM_P2
2021/08/12 00:00:19;;;;;;;8.37;5.67;;;;;;;15.33;100.00;101442.34;5051575;28;20194;-69
2021/08/12 00:02:44;;;;;;;7.13;5.40;;;;;;;15.33;100.00;101439.66;5035108;28;20257;-69
2021/08/12 00:05:10;;;;;;;6.80;5.63;;;;;;;15.31;100.00;101445.13;5051534;28;20182;-69
2021/08/12 00:07:35;;;;;;;8.57;5.67;;;;;;;15.33;100.00;101445.88;5034802;28;20171;-69
2021/08/12 00:10:00;;;;;;;6.77;5.57;;;;;;;15.32;100.00;101444.16;5035106;28;20548;-69
2021/08/12 00:12:26;;;;;;;7.53;5.53;;;;;;;15.29;100.00;101443.50;5051815;28;20227;-70
2021/08/12 00:14:52;;;;;;;5.90;5.30;;;;;;;15.29;100.00;101444.34;5054420;28;20180;-69
2021/08/12 00:17:17;;;;;;;8.93;5.23;;;;;;;15.31;100.00;101445.13;5063470;28;20610;-69
2021/08/12 00:19:42;;;;;;;6.87;5.10;;;;;;;15.33;100.00;101440.50;5063147;28;20218;-69
2021/08/12 00:22:08;;;;;;;6.13;5.53;;;;;;;15.36;100.00;101443.97;5064460;28;20683;-69
2021/08/12 00:24:33;;;;;;;9.57;5.63;;;;;;;15.35;100.00;101447.63;5061517;28;20183;-69
2021/08/12 00:27:00;;;;;;;8.97;6.07;;;;;;;15.32;100.00;101446.84;5051659;28;20237;-69
2021/08/12 00:29:25;;;;;;;6.60;5.90;;;;;;;15.23;100.00;101447.41;5051634;28;20175;-69
2021/08/12 00:31:51;;;;;;;6.97;5.87;;;;;;;15.19;100.00;101440.50;5052452;28;20179;-68
2021/08/12 00:34:16;;;;;;;9.00;5.40;;;;;;;15.18;100.00;101441.47;5052465;28;20206;-69
2021/08/12 00:36:41;;;;;;;5.33;4.77;;;;;;;15.17;100.00;101444.25;5051288;28;20183;-69
2021/08/12 00:39:06;;;;;;;6.30;5.37;;;;;;;15.26;100.00;101446.38;5052775;28;20231;-69
2021/08/12 00:41:35;;;;;;;7.30;4.97;;;;;;;15.31;100.00;101444.25;5034560;28;20183;-69
2021/08/12 00:44:01;;;;;;;6.63;4.60;;;;;;;15.32;100.00;101448.69;5052578;28;20598;-69
2021/08/12 00:46:26;;;;;;;7.07;5.40;;;;;;;15.29;100.00;101449.75;5034463;28;20190;-70
2021/08/12 00:48:51;;;;;;;7.27;5.10;;;;;;;15.25;100.00;101448.22;5052447;28;20172;-69
2021/08/12 00:51:17;;;;;;;7.43;4.97;;;;;;;15.22;100.00;101453.75;5035536;28;20233;-70
2021/08/12 00:53:42;;;;;;;9.00;5.80;;;;;;;15.22;100.00;101453.75;5054433;28;20219;-69
2021/08/12 00:56:08;;;;;;;8.30;5.43;;;;;;;15.24;100.00;101459.06;5054917;28;20663;-70
2021/08/12 00:58:36;;;;;;;8.33;5.87;;;;;;;15.15;100.00;101457.78;5038134;28;20199;-70
2021/08/12 01:01:02;;;;;;;8.30;5.20;;;;;;;14.96;100.00;101459.91;5054640;28;20305;-69
2021/08/12 01:03:27;;;;;;;8.97;5.50;;;;;;;14.89;100.00;101454.03;5037814;28;20219;-70
2021/08/12 01:05:56;;;;;;;6.50;5.90;;;;;;;14.80;100.00;101453.69;5054466;28;20180;-70
2021/08/12 01:08:43;;;;;;;6.67;5.83;;;;;;;14.69;100.00;101449.84;5054522;28;20179;-69
2021/08/12 01:11:26;;;;;;;8.67;6.10;;;;;;;14.66;100.00;101451.88;5037859;28;20192;-69
2021/08/12 01:13:59;;;;;;;7.00;5.77;;;;;;;14.58;100.00;101457.69;5055559;28;20257;-69
2021/08/12 01:16:29;;;;;;;9.93;6.43;;;;;;;14.65;100.00;101461.75;5037758;28;20244;-69
2021/08/12 01:18:58;;;;;;;12.40;6.73;;;;;;;14.57;100.00;101460.47;5054454;28;20690;-69
2021/08/12 01:21:28;;;;;;;9.80;6.60;;;;;;;14.59;100.00;101454.06;5037667;28;20183;-69
2021/08/12 01:23:57;;;;;;;10.47;6.50;;;;;;;14.57;100.00;101453.28;5054133;28;20643;-69
2021/08/12 01:26:23;;;;;;;8.33;6.30;;;;;;;14.57;100.00;101453.28;5037478;28;20172;-69
2021/08/12 01:28:50;;;;;;;8.97;6.70;;;;;;;14.50;100.00;101446.56;5054162;28;20590;-69
2021/08/12 01:31:40;;;;;;;7.97;6.77;;;;;;;14.48;100.00;101451.13;5054402;28;20179;-68
2021/08/12 01:34:23;;;;;;;10.87;6.70;;;;;;;14.45;100.00;101453.13;5054132;28;20191;-69
2021/08/12 01:36:54;;;;;;;9.00;6.73;;;;;;;14.38;100.00;101452.59;5054117;28;20174;-69
2021/08/12 01:39:19;;;;;;;8.37;6.73;;;;;;;14.35;100.00;101452.78;5054212;28;20261;-69
2021/08/12 01:41:46;;;;;;;13.90;7.33;;;;;;;14.33;100.00;101455.56;5053918;28;20648;-69
2021/08/12 01:44:12;;;;;;;7.70;6.37;;;;;;;14.29;100.00;101458.50;5053913;28;20704;-69
2021/08/12 01:46:37;;;;;;;10.93;6.83;;;;;;;14.23;100.00;101451.69;5053838;28;20267;-69
2021/08/12 01:49:04;;;;;;;8.53;6.53;;;;;;;14.16;100.00;101457.50;5055020;28;20176;-69
2021/08/12 01:51:30;;;;;;;8.43;6.57;;;;;;;14.12;100.00;101455.94;5053863;28;20187;-69
2021/08/12 01:53:56;;;;;;;9.47;6.53;;;;;;;14.08;100.00;101457.94;5053534;28;20207;-69
2021/08/12 01:56:22;;;;;;;22.40;7.27;;;;;;;14.05;100.00;101456.28;5053704;28;20183;-68
2021/08/12 01:58:47;;;;;;;9.83;6.63;;;;;;;14.00;100.00;101446.78;5054844;28;20592;-70
2021/08/12 02:01:13;;;;;;;9.53;6.77;;;;;;;13.97;100.00;101452.31;5053718;28;20176;-70
2021/08/12 02:03:40;;;;;;;10.00;6.97;;;;;;;14.06;100.00;101457.16;5053026;28;20203;-70
2021/08/12 02:06:06;;;;;;;10.13;7.77;;;;;;;14.10;100.00;101456.00;5053577;28;20175;-70
2021/08/12 02:08:32;;;;;;;10.23;8.10;;;;;;;14.11;100.00;101446.16;5036937;28;20221;-70
2021/08/12 02:10:57;;;;;;;10.43;7.43;;;;;;;14.00;100.00;101452.13;5036684;28;20194;-69
2021/08/12 02:13:24;;;;;;;9.70;7.67;;;;;;;14.00;100.00;101450.31;5053388;28;20198;-70
2021/08/12 02:15:50;;;;;;;9.00;8.10;;;;;;;14.00;100.00;101442.28;5037001;28;20266;-70
2021/08/12 02:18:15;;;;;;;9.10;7.80;;;;;;;13.95;100.00;101443.50;5036573;28;20286;-70
2021/08/12 02:20:41;;;;;;;9.77;7.37;;;;;;;13.89;100.00;101436.66;5036456;28;20670;-69
2021/08/12 02:23:14;;;;;;;9.17;8.17;;;;;;;13.82;100.00;101445.16;5053216;28;20199;-69
2021/08/12 02:25:54;;;;;;;11.73;8.00;;;;;;;13.89;100.00;101438.47;5036496;28;20262;-69
2021/08/12 02:28:20;;;;;;;10.10;8.53;;;;;;;13.92;100.00;101439.16;5053173;28;20160;-69
2021/08/12 02:30:46;;;;;;;12.63;8.60;;;;;;;13.88;100.00;101442.13;5053481;28;20665;-69
2021/08/12 02:33:16;;;;;;;16.23;9.00;;;;;;;13.91;100.00;101441.94;5053849;28;20572;-70
2021/08/12 02:35:42;;;;;;;12.17;8.23;;;;;;;13.86;100.00;101439.53;5053132;28;20176;-69
2021/08/12 02:38:10;;;;;;;12.03;8.60;;;;;;;13.83;100.00;101445.06;5053256;28;20210;-70
2021/08/12 02:40:36;;;;;;;12.87;8.77;;;;;;;13.82;100.00;101446.03;5052852;28;20192;-69
2021/08/12 02:43:02;;;;;;;10.53;9.37;;;;;;;13.91;100.00;101444.63;5052667;28;20195;-69
2021/08/12 02:45:29;;;;;;;11.53;8.97;;;;;;;13.89;100.00;101452.75;5052812;28;20182;-69
2021/08/12 02:47:55;;;;;;;11.50;8.20;;;;;;;13.79;100.00;101442.66;5053006;28;20198;-69
2021/08/12 02:50:21;;;;;;;10.63;8.97;;;;;;;13.84;100.00;101446.78;5052789;28;20187;-69
2021/08/12 02:52:47;;;;;;;11.60;8.13;;;;;;;13.70;100.00;101438.63;5035840;28;20303;-69
2021/08/12 02:55:13;;;;;;;9.03;8.10;;;;;;;13.71;100.00;101437.69;5035717;28;20266;-69
2021/08/12 02:57:38;;;;;;;12.37;9.00;;;;;;;13.71;100.00;101435.88;5035576;28;20203;-68
2021/08/12 03:00:04;;;;;;;10.00;7.80;;;;;;;13.70;100.00;101433.28;5052721;28;20222;-70
2021/08/12 03:02:30;;;;;;;9.27;7.83;;;;;;;13.63;100.00;101439.94;5052486;28;20210;-69
2021/08/12 03:04:56;;;;;;;10.70;8.63;;;;;;;13.69;100.00;101437.78;5052517;28;20176;-70
2021/08/12 03:07:22;;;;;;;10.17;8.97;;;;;;;13.73;100.00;101450.06;5052719;28;20175;-69
2021/08/12 03:09:49;;;;;;;11.00;9.13;;;;;;;13.69;100.00;101448.50;5052426;28;20183;-69
2021/08/12 03:12:18;;;;;;;10.97;9.27;;;;;;;13.71;100.00;101445.72;5052279;28;20248;-69
2021/08/12 03:14:44;;;;;;;9.73;7.37;;;;;;;13.54;100.00;101451.19;5051396;28;20259;-69
2021/08/12 03:17:13;;;;;;;10.97;7.67;;;;;;;13.56;100.00;101450.16;5052147;28;20175;-69
2021/08/12 03:19:39;;;;;;;9.13;7.80;;;;;;;13.52;100.00;101447.72;5053218;28;20184;-69
2021/08/12 03:22:06;;;;;;;11.43;8.20;;;;;;;13.56;100.00;101446.59;5051915;28;20194;-69
2021/08/12 03:24:45;;;;;;;11.97;8.47;;;;;;;13.51;100.00;101446.00;5035420;28;20218;-70
2021/08/12 03:27:12;;;;;;;11.27;8.73;;;;;;;13.58;100.00;101456.28;5053196;28;20593;-69
2021/08/12 03:29:41;;;;;;;11.43;8.33;;;;;;;13.53;100.00;101453.00;5035238;28;20270;-69
2021/08/12 03:32:07;;;;;;;10.83;8.93;;;;;;;13.60;100.00;101453.53;5051905;28;20241;-70
2021/08/12 03:34:33;;;;;;;10.90;9.47;;;;;;;13.60;100.00;101456.22;5035225;28;20266;-70
2021/08/12 03:36:58;;;;;;;12.37;9.37;;;;;;;13.67;100.00;101447.72;5035318;28;20183;-71
2021/08/12 03:39:24;;;;;;;11.63;8.57;;;;;;;13.59;100.00;101455.34;5035214;28;20253;-69
2021/08/12 03:41:50;;;;;;;12.87;8.27;;;;;;;13.58;100.00;101461.66;5061087;28;20184;-69
2021/08/12 03:44:16;;;;;;;11.30;8.40;;;;;;;13.48;100.00;101460.44;5064217;28;20171;-69
2021/08/12 03:46:41;;;;;;;9.53;8.40;;;;;;;13.47;100.00;101461.41;5059087;28;20642;-69
2021/08/12 03:49:07;;;;;;;10.50;8.13;;;;;;;13.48;100.00;101459.56;5052036;28;20186;-69
2021/08/12 03:51:32;;;;;;;10.27;8.07;;;;;;;13.43;100.00;101466.06;5052312;28;20186;-69
2021/08/12 03:53:57;;;;;;;10.53;8.90;;;;;;;13.47;100.00;101468.56;5055789;22;20223;-69
2021/08/12 03:56:23;;;;;;;9.70;8.33;;;;;;;13.51;100.00;101476.38;5051914;28;20646;-69
2021/08/12 03:58:48;;;;;;;9.43;8.10;;;;;;;13.47;100.00;101480.16;5052713;28;20203;-67
2021/08/12 04:01:13;;;;;;;10.77;8.80;;;;;;;13.48;100.00;101471.16;5052720;28;20172;-68
2021/08/12 04:03:39;;;;;;;11.20;8.77;;;;;;;13.53;100.00;101478.97;5051288;28;20198;-68
2021/08/12 04:06:04;;;;;;;12.40;9.13;;;;;;;13.58;100.00;101484.94;5052821;28;20179;-68
2021/08/12 04:08:31;;;;;;;14.13;9.20;;;;;;;13.66;100.00;101480.00;5052600;28;20183;-68
2021/08/12 04:10:56;;;;;;;10.23;8.43;;;;;;;13.61;100.00;101490.13;5052934;28;20248;-68
2021/08/12 04:13:21;;;;;;;10.93;8.30;;;;;;;13.61;100.00;101499.03;5052454;28;20540;-69
2021/08/12 04:15:46;;;;;;;8.47;7.47;;;;;;;13.72;100.00;101493.06;5052980;28;20183;-67
2021/08/12 04:18:12;;;;;;;12.27;8.33;;;;;;;13.74;100.00;101500.06;5051570;28;20203;-68
2021/08/12 04:20:37;;;;;;;10.40;8.57;;;;;;;13.81;100.00;101499.78;5052016;28;20180;-68
2021/08/12 04:23:02;;;;;;;12.57;8.07;;;;;;;13.85;100.00;101501.31;5052414;28;20614;-68
2021/08/12 04:25:28;;;;;;;8.20;7.40;;;;;;;13.93;100.00;101499.94;5052865;28;20661;-69
2021/08/12 04:27:53;;;;;;;8.63;7.83;;;;;;;14.02;100.00;101498.53;5057042;28;20211;-69
2021/08/12 04:30:20;;;;;;;9.57;7.73;;;;;;;14.00;100.00;101497.75;5058393;28;20191;-69
2021/08/12 04:32:46;;;;;;;9.67;7.73;;;;;;;13.99;100.00;101488.84;5057087;28;20230;-68
2021/08/12 04:35:11;;;;;;;8.60;7.67;;;;;;;14.01;100.00;101495.00;5059376;28;20186;-68
2021/08/12 04:37:47;;;;;;;9.77;7.53;;;;;;;13.95;100.00;101492.66;5061597;28;20683;-69
2021/08/12 04:40:16;;;;;;;9.63;7.83;;;;;;;13.87;100.00;101486.00;5056913;28;20624;-69
2021/08/12 04:42:42;;;;;;;12.30;8.40;;;;;;;13.88;100.00;101493.09;5056404;28;20202;-69
2021/08/12 04:45:08;;;;;;;10.10;8.00;;;;;;;13.90;100.00;101489.38;5055488;28;20256;-69
2021/08/12 04:47:33;;;;;;;11.20;8.43;;;;;;;13.86;100.00;101493.19;5056854;28;20222;-69
2021/08/12 04:49:59;;;;;;;10.37;7.60;;;;;;;13.91;100.00;101501.84;5056424;28;20199;-69
2021/08/12 04:52:24;;;;;;;9.17;7.43;;;;;;;13.92;100.00;101489.28;5055867;28;20171;-69
2021/08/12 04:54:50;;;;;;;10.47;7.57;;;;;;;14.09;100.00;101495.41;5056367;28;20182;-69
2021/08/12 04:57:15;;;;;;;7.37;6.67;;;;;;;14.12;100.00;101496.19;5054675;28;20174;-68
2021/08/12 04:59:40;;;;;;;7.83;6.90;;;;;;;14.14;100.00;101497.88;5054654;28;20640;-68
2021/08/12 05:02:06;;;;;;;8.63;7.30;;;;;;;14.22;100.00;101500.09;5056052;28;20175;-68
2021/08/12 05:04:31;;;;;;;7.90;7.10;;;;;;;14.18;100.00;101495.88;5055880;28;20195;-68
2021/08/12 05:06:56;;;;;;;9.93;7.47;;;;;;;14.12;100.00;101499.75;5056031;28;20179;-69
2021/08/12 05:09:21;;;;;;;8.17;6.87;;;;;;;14.14;100.00;101503.22;5055868;28;20505;-69
2021/08/12 05:11:47;;;;;;;11.60;7.40;;;;;;;14.15;100.00;101504.97;5054388;28;20199;-69
2021/08/12 05:14:12;;;;;;;11.60;7.23;;;;;;;14.14;100.00;101505.06;5055621;28;20196;-69
2021/08/12 05:16:38;;;;;;;10.23;7.50;;;;;;;14.22;100.00;101506.34;5055655;28;20176;-69
2021/08/12 05:19:03;;;;;;;7.60;6.87;;;;;;;14.30;100.00;101503.22;5055380;28;20559;-69
2021/08/12 05:21:28;;;;;;;12.10;6.80;;;;;;;14.45;100.00;101507.72;5056039;28;20171;-69
2021/08/12 05:23:53;;;;;;;11.33;6.67;;;;;;;14.36;100.00;101509.09;5055355;28;20655;-69
2021/08/12 05:26:19;;;;;;;8.03;6.53;;;;;;;14.44;100.00;101497.91;5055404;28;20182;-67
2021/08/12 05:28:44;;;;;;;9.33;5.93;;;;;;;14.59;100.00;101497.03;5058061;28;20167;-67
2021/08/12 05:31:09;;;;;;;9.67;6.40;;;;;;;14.63;100.00;101495.91;5057684;28;20529;-68
2021/08/12 05:33:36;;;;;;;13.33;6.50;;;;;;;14.65;100.00;101499.34;5058032;28;20205;-68
2021/08/12 05:36:04;;;;;;;6.70;5.80;;;;;;;14.78;100.00;101506.69;5056909;28;20259;-68
2021/08/12 05:38:30;;;;;;;7.23;6.10;;;;;;;14.87;100.00;101509.69;5054914;28;20219;-67
2021/08/12 05:40:56;;;;;;;6.67;6.03;;;;;;;14.99;100.00;101508.09;5056633;28;20179;-67
2021/08/12 05:43:22;;;;;;;6.93;6.23;;;;;;;15.09;100.00;101509.25;5056892;28;20202;-67
2021/08/12 05:45:47;;;;;;;6.97;5.67;;;;;;;15.17;100.00;101512.31;5056146;28;20180;-68
2021/08/12 05:48:13;;;;;;;8.97;5.70;;;;;;;15.30;100.00;101510.63;5054292;28;20174;-68
2021/08/12 05:50:43;;;;;;;8.27;6.70;;;;;;;15.47;100.00;101514.94;5054592;28;20183;-67
2021/08/12 05:53:12;;;;;;;8.13;5.87;;;;;;;15.63;100.00;101509.53;5055544;28;20203;-68
2021/08/12 05:55:38;;;;;;;6.63;5.70;;;;;;;15.78;100.00;101524.69;5054382;28;20186;-67
2021/08/12 05:58:04;;;;;;;11.30;5.47;;;;;;;15.90;100.00;101518.50;5055677;28;20206;-68
2021/08/12 06:00:29;;;;;;;6.87;5.97;;;;;;;16.14;99.10;101515.19;5056647;28;20164;-68
2021/08/12 06:02:54;;;;;;;9.40;6.20;;;;;;;16.26;98.27;101511.69;5055397;28;20233;-67
2021/08/12 06:05:20;;;;;;;5.97;5.37;;;;;;;16.39;97.13;101509.94;5055531;28;20176;-68
2021/08/12 06:07:45;;;;;;;7.33;5.20;;;;;;;16.54;96.23;101511.59;5055530;28;20164;-68
2021/08/12 06:10:10;;;;;;;5.90;5.30;;;;;;;16.72;96.02;101503.25;5054751;28;20183;-68
2021/08/12 06:12:36;;;;;;;6.57;5.50;;;;;;;16.82;95.37;101505.22;5055098;28;20203;-68
2021/08/12 06:15:01;;;;;;;5.50;4.53;;;;;;;16.94;94.34;101506.22;5056156;28;20505;-67
2021/08/12 06:17:26;;;;;;;5.67;4.23;;;;;;;16.98;94.09;101507.72;5055136;28;20218;-68
2021/08/12 06:19:52;;;;;;;10.13;5.37;;;;;;;17.01;92.83;101510.22;5054392;28;20241;-67
2021/08/12 06:22:19;;;;;;;4.77;4.30;;;;;;;17.17;93.41;101518.13;5053866;28;20172;-68
2021/08/12 06:24:44;;;;;;;7.00;4.43;;;;;;;17.25;92.67;101523.84;5055108;28;20171;-68
2021/08/12 06:27:09;;;;;;;6.87;4.53;;;;;;;17.35;91.45;101522.22;5052982;28;20171;-68
2021/08/12 06:29:35;;;;;;;5.47;4.97;;;;;;;17.52;91.29;101523.72;5054130;28;20183;-68
2021/08/12 06:32:01;;;;;;;5.30;4.80;;;;;;;17.57;90.80;101518.00;5054099;28;20172;-67
2021/08/12 06:34:26;;;;;;;8.70;4.27;;;;;;;17.63;90.04;101520.25;5053083;28;20199;-68
2021/08/12 06:36:51;;;;;;;5.90;4.97;;;;;;;17.79;88.81;101526.31;5056976;28;20643;-68
2021/08/12 06:39:17;;;;;;;5.20;4.33;;;;;;;17.94;88.07;101527.03;5054304;28;20294;-68
2021/08/12 06:41:43;;;;;;;6.20;4.37;;;;;;;18.07;86.51;101526.03;5052581;28;20172;-68
2021/08/12 06:44:09;;;;;;;6.13;5.07;;;;;;;18.30;85.93;101529.75;5054029;28;20195;-68
2021/08/12 06:46:34;;;;;;;11.50;4.40;;;;;;;18.09;85.57;101524.06;5052905;28;20176;-67
2021/08/12 06:49:00;;;;;;;4.90;4.40;;;;;;;18.22;86.33;101534.88;5035607;28;20543;-67
2021/08/12 06:51:25;;;;;;;6.73;5.00;;;;;;;18.22;85.57;101534.00;5054278;28;20198;-67
2021/08/12 06:53:50;;;;;;;4.73;4.27;;;;;;;18.21;86.15;101535.84;5053686;28;20237;-67
2021/08/12 06:56:15;;;;;;;6.33;5.03;;;;;;;18.21;86.15;101537.66;5035658;28;20180;-67
2021/08/12 06:58:41;;;;;;;4.73;4.13;;;;;;;18.20;86.91;101539.47;5053812;28;20252;-67
2021/08/12 07:01:06;;;;;;;5.63;4.23;;;;;;;18.35;87.93;101534.81;5053832;28;20180;-68
2021/08/12 07:03:31;;;;;;;5.03;4.33;;;;;;;18.17;88.02;101536.16;5053495;28;20715;-68
2021/08/12 07:05:57;;;;;;;6.07;4.47;;;;;;;18.59;86.07;101541.09;5053851;28;20183;-67
2021/08/12 07:08:22;;;;;;;6.93;4.00;;;;;;;18.45;86.24;101530.44;5053344;28;20182;-67
2021/08/12 07:10:47;;;;;;;9.47;4.33;;;;;;;18.36;87.22;101531.13;5052527;28;20536;-67
2021/08/12 07:13:12;;;;;;;6.70;5.40;;;;;;;18.33;87.55;101534.91;5053419;28;20222;-67
2021/08/12 07:15:38;;;;;;;7.27;5.37;;;;;;;18.33;87.14;101531.34;5054003;28;20180;-68
2021/08/12 07:18:03;;;;;;;9.30;5.10;;;;;;;18.48;86.12;101535.59;5053520;28;20196;-69
2021/08/12 07:20:28;;;;;;;7.97;4.63;;;;;;;18.75;83.55;101532.69;5053483;28;20190;-68
2021/08/12 07:22:54;;;;;;;6.60;4.23;;;;;;;18.76;83.99;101533.56;5053480;28;20202;-68
2021/08/12 07:25:22;;;;;;;4.87;3.93;;;;;;;18.67;82.89;101529.72;5053500;28;20195;-68
2021/08/12 07:27:49;;;;;;;4.60;3.90;;;;;;;18.73;83.22;101534.66;5053172;28;20175;-68
2021/08/12 07:30:15;;;;;;;6.07;4.17;;;;;;;18.99;83.01;101529.97;5052012;28;20171;-68
2021/08/12 07:32:40;;;;;;;4.90;3.83;;;;;;;19.10;82.17;101534.53;5052357;28;20196;-69
2021/08/12 07:35:07;;;;;;;7.67;3.23;;;;;;;19.25;81.21;101533.31;5052976;28;20171;-68
2021/08/12 07:37:32;;;;;;;7.60;4.07;;;;;;;19.25;80.52;101526.06;5052871;28;20199;-68
2021/08/12 07:39:57;;;;;;;4.27;3.60;;;;;;;19.44;79.54;101535.47;5053069;28;20176;-69
2021/08/12 07:42:23;;;;;;;5.97;3.60;;;;;;;19.52;76.70;101533.88;5052965;28;20180;-68
2021/08/12 07:44:48;;;;;;;6.75;3.60;;;;;;;19.55;77.11;101539.06;5053271;28;20180;-68
2021/08/12 07:47:13;;;;;;;6.83;5.20;;;;;;;19.73;76.46;101541.31;5053155;28;20208;-68
2021/08/12 07:49:39;;;;;;;5.80;3.30;;;;;;;19.93;76.33;101543.25;5051836;28;20172;-68
2021/08/12 07:52:04;;;;;;;5.13;3.67;;;;;;;19.66;76.57;101536.34;5053006;28;20175;-68
2021/08/12 07:54:30;;;;;;;5.17;3.40;;;;;;;20.06;75.46;101538.56;5052599;28;20233;-68
2021/08/12 07:56:55;;;;;;;4.40;3.60;;;;;;;20.05;75.06;101541.38;5053122;28;20226;-68
2021/08/12 07:59:21;;;;;;;5.27;3.73;;;;;;;20.22;74.83;101538.19;5052800;28;20203;-68
2021/08/12 08:01:46;;;;;;;5.23;4.13;;;;;;;20.51;73.40;101538.50;5051447;28;20580;-68
2021/08/12 08:04:11;;;;;;;8.73;6.00;;;;;;;20.18;71.68;101540.28;5053176;28;20241;-69
2021/08/12 08:06:37;;;;;;;6.63;5.53;;;;;;;20.59;71.50;101536.00;5052652;28;20212;-68
2021/08/12 08:09:02;;;;;;;5.43;4.23;;;;;;;20.46;72.39;101538.03;5051595;28;20178;-68
2021/08/12 08:11:27;;;;;;;6.10;4.30;;;;;;;20.33;72.07;101545.41;5051510;28;20582;-68
2021/08/12 08:13:53;;;;;;;8.53;4.80;;;;;;;20.39;70.62;101544.91;5052942;28;20196;-68
2021/08/12 08:16:21;;;;;;;8.13;4.90;;;;;;;20.37;72.35;101550.44;5053353;28;20180;-68
2021/08/12 08:18:47;;;;;;;4.73;4.30;;;;;;;20.47;71.89;101539.75;5052082;28;20203;-68
2021/08/12 08:21:12;;;;;;;6.77;4.73;;;;;;;20.51;71.83;101544.78;5051774;28;20586;-68
2021/08/12 08:23:37;;;;;;;4.87;3.63;;;;;;;20.90;70.50;101540.56;5053025;28;20199;-68
2021/08/12 08:26:02;;;;;;;4.30;3.90;;;;;;;20.96;70.40;101532.91;5051294;28;20640;-68
2021/08/12 08:28:28;;;;;;;8.33;4.20;;;;;;;20.85;71.32;101545.53;5052568;28;20183;-68
2021/08/12 08:30:53;;;;;;;13.50;9.30;;;;;;;20.97;70.48;101543.63;5051210;28;20194;-68
2021/08/12 08:33:18;;;;;;;13.27;9.20;;;;;;;20.97;70.40;101542.75;5051273;28;20196;-68
2021/08/12 08:35:44;;;;;;;5.60;3.93;;;;;;;21.15;68.65;101538.44;5051526;28;20286;-68
2021/08/12 08:38:09;;;;;;;5.80;3.93;;;;;;;20.97;69.56;101530.06;5052835;28;20199;-68
2021/08/12 08:40:36;;;;;;;4.73;3.83;;;;;;;21.26;68.93;101535.72;5052439;28;20242;-68
2021/08/12 08:43:02;;;;;;;4.67;3.50;;;;;;;21.14;69.66;101528.59;5052497;28;20317;-67
2021/08/12 08:45:28;;;;;;;3.80;3.10;;;;;;;21.41;67.78;101533.50;5052718;28;20176;-68
2021/08/12 08:47:55;;;;;;;5.43;3.57;;;;;;;21.66;65.96;101537.66;5051218;28;20183;-66
2021/08/12 08:50:25;;;;;;;3.97;3.50;;;;;;;21.56;66.92;101534.00;5051299;28;20239;-67
2021/08/12 08:52:51;;;;;;;4.40;3.43;;;;;;;21.41;67.44;101534.38;5052468;28;20203;-69
2021/08/12 08:55:22;;;;;;;6.03;3.03;;;;;;;21.51;67.33;101528.97;5051221;28;20202;-68
2021/08/12 08:57:56;;;;;;;7.03;3.70;;;;;;;21.43;66.47;101520.66;5051253;28;20200;-68
2021/08/12 09:00:23;;;;;;;3.53;2.73;;;;;;;21.77;65.59;101521.25;5052644;28;20596;-67
2021/08/12 09:02:49;;;;;;;5.43;3.20;;;;;;;22.02;65.23;101520.78;5052272;28;20203;-68
2021/08/12 09:05:15;;;;;;;5.67;2.57;;;;;;;21.61;63.04;101512.75;5051353;28;20180;-67
2021/08/12 09:07:40;;;;;;;5.23;2.67;;;;;;;21.90;61.83;101521.84;5034398;28;20616;-67
2021/08/12 09:10:06;;;;;;;4.40;2.50;;;;;;;22.02;61.70;101515.34;5051271;28;20176;-67
2021/08/12 09:12:31;;;;;;;3.93;2.80;;;;;;;22.20;61.91;101526.41;5052586;28;20204;-67
2021/08/12 09:15:02;;;;;;;5.20;3.07;;;;;;;22.33;61.37;101520.75;5054653;28;20230;-67
2021/08/12 09:17:29;;;;;;;6.40;2.80;;;;;;;22.28;61.76;101531.16;5054762;28;20175;-68
2021/08/12 09:19:59;;;;;;;4.60;3.37;;;;;;;22.43;59.91;101521.59;5054693;28;20513;-67
2021/08/12 09:22:27;;;;;;;3.43;2.60;;;;;;;22.31;59.98;101528.19;5054382;28;20214;-67
2021/08/12 09:24:52;;;;;;;6.33;3.40;;;;;;;22.55;60.22;101519.59;5054400;28;20179;-67
2021/08/12 09:27:22;;;;;;;5.50;2.43;;;;;;;22.51;60.57;101520.91;5054765;28;20175;-67
2021/08/12 09:29:47;;;;;;;3.07;2.40;;;;;;;22.28;60.87;101529.28;5054381;28;20222;-67
2021/08/12 09:32:13;;;;;;;5.13;2.20;;;;;;;22.51;58.35;101524.47;5054207;28;20658;-68
2021/08/12 09:34:43;;;;;;;3.63;2.33;;;;;;;22.77;58.07;101524.78;5054326;28;20183;-67
2021/08/12 09:37:09;;;;;;;8.10;2.40;;;;;;;22.19;59.16;101523.84;5054524;28;20214;-67
2021/08/12 09:39:35;;;;;;;3.77;2.40;;;;;;;22.54;58.79;101524.19;5054148;28;20605;-67
2021/08/12 09:42:01;;;;;;;3.10;2.00;;;;;;;22.74;57.38;101522.34;5055312;28;20179;-68
2021/08/12 09:44:44;;;;;;;3.00;2.17;;;;;;;22.33;57.21;101527.03;5053859;28;20195;-68
2021/08/12 09:47:12;;;;;;;4.60;2.30;;;;;;;22.74;57.27;101520.50;5037400;28;20160;-67
2021/08/12 09:49:42;;;;;;;3.85;1.90;;;;;;;23.09;56.36;101516.34;5055859;28;20578;-66
2021/08/12 09:52:19;;;;;;;3.97;2.20;;;;;;;23.49;54.93;101535.16;5055473;28;20180;-68
2021/08/12 09:54:44;;;;;;;3.67;2.17;;;;;;;23.51;54.72;101524.13;5076747;22;20722;-77
2021/08/12 09:57:19;;;;;;;3.13;1.80;;;;;;;23.77;53.83;101532.50;5058636;28;20167;-78
2021/08/12 09:59:52;;;;;;;2.77;1.93;;;;;;;23.84;53.22;101525.47;5042900;28;20175;-77
2021/08/12 10:02:18;;;;;;;5.07;2.00;;;;;;;23.63;53.48;101520.22;5042744;28;20254;-78
2021/08/12 10:04:43;;;;;;;3.07;1.77;;;;;;;23.81;52.58;101525.78;5060492;28;20199;-79
2021/08/12 10:07:38;;;;;;;3.33;1.97;;;;;;;23.23;53.41;101515.00;5045295;28;20183;-77
2021/08/12 10:10:26;;;;;;;1.93;1.53;;;;;;;23.25;53.53;101524.75;5060978;28;20190;-78
2021/08/12 10:12:53;;;;;;;2.90;1.70;;;;;;;23.32;52.78;101525.88;5060968;28;20159;-79
2021/08/12 10:15:25;;;;;;;3.57;2.60;;;;;;;23.64;52.36;101530.13;5060194;28;20175;-77
2021/08/12 10:17:51;;;;;;;3.03;1.77;;;;;;;23.45;53.19;101525.59;5056658;28;20195;-78
2021/08/12 10:20:19;;;;;;;5.10;2.17;;;;;;;23.35;53.19;101519.28;5055932;28;20244;-76
2021/08/12 10:22:47;;;;;;;3.50;1.90;;;;;;;23.83;51.90;101524.59;5040127;28;20170;-77
2021/08/12 10:25:14;;;;;;;2.03;1.57;;;;;;;23.96;51.85;101521.53;5041778;28;20183;-78
2021/08/12 10:27:40;;;;;;;1.73;1.63;;;;;;;24.04;51.91;101523.50;5062286;28;20179;-78
2021/08/12 10:30:07;;;;;;;2.33;1.57;;;;;;;24.46;50.76;101516.50;5062881;28;20163;-78
2021/08/12 10:32:34;;;;;;;3.40;2.00;;;;;;;24.11;51.13;101520.00;5045804;28;20588;-78
2021/08/12 10:35:02;;;;;;;3.00;2.07;;;;;;;24.26;50.88;101517.63;5041863;28;20291;-78
2021/08/12 10:37:27;;;;;;;2.07;1.53;;;;;;;24.69;50.28;101516.06;5058878;28;20242;-78
2021/08/12 10:39:53;;;;;;;4.87;1.93;;;;;;;24.61;51.08;101514.97;5060526;28;20711;-78
2021/08/12 10:42:19;;;;;;;5.60;1.80;;;;;;;24.88;50.09;101515.88;5062205;28;20672;-78
2021/08/12 10:44:44;;;;;;;2.40;1.50;;;;;;;25.15;48.59;101513.06;5060451;28;20196;-78
2021/08/12 10:47:36;;;;;;;3.60;2.03;;;;;;;25.37;48.51;101506.22;5044055;28;20175;-78
2021/08/12 10:50:21;;;;;;;3.10;2.00;;;;;;;24.79;49.42;101514.09;5067677;28;20202;-78
2021/08/12 10:53:04;;;;;;;4.67;1.70;;;;;;;26.09;45.57;101507.63;5071957;28;20171;-78
2021/08/12 10:55:29;;;;;;;2.90;1.77;;;;;;;25.10;48.29;101501.75;5063843;28;20187;-78
2021/08/12 10:58:25;;;;;;;2.00;1.33;;;;;;;26.24;45.79;101506.97;5044061;28;20207;-78
2021/08/12 11:00:55;;;;;;;2.80;1.70;;;;;;;26.40;46.00;101520.75;5059143;28;20247;-78
2021/08/12 11:03:33;;;;;;;1.67;1.47;;;;;;;24.93;47.79;101502.63;5060173;28;20191;-78
2021/08/12 11:06:10;;;;;;;3.57;1.70;;;;;;;25.21;48.46;101496.03;5056070;28;20179;-77
2021/08/12 11:08:48;;;;;;;3.17;1.90;;;;;;;26.93;45.05;101495.63;5054943;28;20201;-77
2021/08/12 11:11:13;;;;;;;3.57;1.63;;;;;;;28.24;41.77;101501.66;5054336;28;20125;-77
2021/08/12 11:13:38;;;;;;;3.07;1.80;;;;;;;28.50;40.96;101504.06;5053956;28;20223;-77
2021/08/12 11:16:04;;;;;;;3.58;1.60;;;;;;;27.78;41.13;101500.66;5053719;28;20659;-77
2021/08/12 11:18:44;;;;;;;2.15;1.40;;;;;;;30.79;37.23;101498.59;5055382;28;20625;-77